createdAt,value
2022-10-03T00:03:23.748Z,97227.56
2022-10-03T00:08:43.965Z,97216.69
2022-10-03T00:13:58.794Z,97205.75
2022-10-03T00:19:08.529Z,97185.88
2022-10-03T00:24:25.708Z,97186.06
2022-10-03T00:29:44.548Z,97181.19
2022-10-03T00:35:02.676Z,97173.00
2022-10-03T00:40:48.745Z,97158.91
2022-10-03T00:46:19.280Z,97140.09
2022-10-03T00:51:43.083Z,97136.91
2022-10-03T00:57:00.008Z,97128.94
2022-10-03T01:02:26.448Z,97128.53
2022-10-03T01:08:04.162Z,97125.06
2022-10-03T01:13:25.386Z,97120.59
2022-10-03T01:18:39.793Z,97102.53
2022-10-03T01:24:12.663Z,97094.84
2022-10-03T01:29:42.390Z,97098.91
2022-10-03T01:34:52.933Z,97083.00
2022-10-03T01:40:05.302Z,97074.56
2022-10-03T01:45:26.336Z,97063.38
2022-10-03T01:50:37.336Z,97055.44
2022-10-03T01:55:52.790Z,97049.19
2022-10-03T02:01:08.776Z,97034.94
2022-10-03T02:06:21.647Z,97035.69
2022-10-03T02:11:32.944Z,97022.78
2022-10-03T02:16:45.811Z,97029.19
2022-10-03T02:21:53.132Z,97005.38
2022-10-03T02:27:35.130Z,97000.81
2022-10-03T02:33:23.764Z,96996.25
2022-10-03T02:38:42.036Z,97005.75
2022-10-03T02:44:20.837Z,96987.38
2022-10-03T02:50:09.719Z,96984.13
2022-10-03T02:55:55.488Z,96987.03
2022-10-03T03:01:42.493Z,96975.50
2022-10-03T03:07:15.366Z,96974.69
2022-10-03T03:13:12.348Z,96962.66
2022-10-03T03:18:29.706Z,96957.88
2022-10-03T03:23:51.197Z,96962.47
2022-10-03T03:29:06.281Z,96964.03
2022-10-03T03:34:21.787Z,96951.16
2022-10-03T03:39:49.513Z,96944.13
2022-10-03T03:45:09.748Z,96944.69
2022-10-03T03:50:31.307Z,96939.56
2022-10-03T03:55:56.825Z,96938.53
2022-10-03T04:01:32.571Z,96924.66
2022-10-03T04:06:50.665Z,96937.00
2022-10-03T04:12:00.738Z,96932.53
2022-10-03T04:17:38.067Z,96888.63
2022-10-03T04:23:01.833Z,96876.63
2022-10-03T04:28:46.392Z,96897.56
2022-10-03T04:34:04.090Z,96884.31
2022-10-03T04:39:18.950Z,96877.53
2022-10-03T04:44:38.741Z,96868.75
2022-10-03T04:49:53.947Z,96867.25
2022-10-03T04:55:07.179Z,96853.94
2022-10-03T05:00:25.140Z,96862.03
2022-10-03T05:05:45.570Z,96853.13
2022-10-03T05:11:10.027Z,96857.53
2022-10-03T05:16:24.134Z,96850.91
2022-10-03T05:21:38.533Z,96836.97
2022-10-03T05:26:51.317Z,96828.94
2022-10-03T05:32:12.737Z,96819.50
2022-10-03T05:37:36.961Z,96819.59
2022-10-03T05:43:01.811Z,96822.03
2022-10-03T05:48:14.538Z,96808.91
2022-10-03T05:53:37.097Z,96790.34
2022-10-03T05:59:26.680Z,96781.75
2022-10-03T06:04:59.139Z,96761.28
2022-10-03T06:10:38.015Z,96750.13
2022-10-03T06:15:55.100Z,96743.63
2022-10-03T06:21:18.361Z,96762.81
2022-10-03T06:26:52.267Z,96750.06
2022-10-03T06:32:29.712Z,96734.97
2022-10-03T06:38:01.035Z,96729.53
2022-10-03T06:43:39.319Z,96736.34
2022-10-03T06:49:30.135Z,96732.25
2022-10-03T06:55:18.960Z,96736.88
2022-10-03T07:00:26.239Z,96723.97
2022-10-03T07:06:16.112Z,96706.59
2022-10-03T07:11:36.351Z,96729.97
2022-10-03T07:16:57.710Z,96722.53
2022-10-03T07:22:43.939Z,96746.75
2022-10-03T07:28:13.323Z,96738.34
2022-10-03T07:33:56.266Z,96732.59
2022-10-03T07:39:32.017Z,96727.91
2022-10-03T07:45:13.998Z,96738.66
2022-10-03T07:50:41.228Z,96727.19
2022-10-03T07:56:04.753Z,96736.69
2022-10-03T08:01:43.106Z,96748.66
2022-10-03T08:06:54.085Z,96738.59
2022-10-03T08:12:42.140Z,96726.06
2022-10-03T08:18:21.669Z,96726.69
2022-10-03T08:24:05.299Z,96718.31
2022-10-03T08:29:26.015Z,96721.00
2022-10-03T08:35:06.801Z,96733.56
2022-10-03T08:40:57.557Z,96729.69
2022-10-03T08:46:14.825Z,96724.19
2022-10-03T08:51:59.655Z,96757.13
2022-10-03T08:57:38.598Z,96777.47
2022-10-03T09:03:33.510Z,96775.22
2022-10-03T09:09:06.473Z,96793.38
2022-10-03T09:14:34.607Z,96794.97
2022-10-03T09:20:11.041Z,96810.44
2022-10-03T09:25:32.599Z,96808.47
2022-10-03T09:30:56.105Z,96807.91
2022-10-03T09:36:51.052Z,96802.22
2022-10-03T09:42:23.465Z,96800.94
2022-10-03T09:47:51.377Z,96810.66
2022-10-03T09:53:30.399Z,96803.44
2022-10-03T09:59:07.328Z,96811.25
2022-10-03T10:04:55.461Z,96821.25
2022-10-03T10:10:29.094Z,96822.19
2022-10-03T10:16:14.071Z,96832.69
2022-10-03T10:22:14.941Z,96842.97
2022-10-03T10:27:43.096Z,96841.31
2022-10-03T10:33:27.459Z,96854.50
2022-10-03T10:38:50.584Z,96867.56
2022-10-03T10:44:43.667Z,96862.94
2022-10-03T10:50:28.784Z,96876.69
2022-10-03T10:56:25.508Z,96870.00
2022-10-03T11:01:54.002Z,96878.72
2022-10-03T11:07:17.951Z,96886.88
2022-10-03T11:13:00.987Z,96902.63
2022-10-03T11:18:44.932Z,96898.28
2022-10-03T11:24:18.129Z,96914.50
2022-10-03T11:30:04.588Z,96923.50
2022-10-03T11:35:59.252Z,96939.59
2022-10-03T11:41:17.505Z,96942.69
2022-10-03T11:46:32.288Z,96960.56
2022-10-03T11:51:41.915Z,96976.00
2022-10-03T11:56:51.136Z,96967.81
2022-10-03T12:02:21.499Z,96973.69
2022-10-03T12:07:58.681Z,96986.44
2022-10-03T12:13:11.168Z,96992.63
2022-10-03T12:18:21.421Z,97002.97
2022-10-03T12:23:43.130Z,97017.19
2022-10-03T12:28:55.105Z,97013.66
2022-10-03T12:34:09.482Z,97026.81
2022-10-03T12:39:32.012Z,97049.53
2022-10-03T12:44:49.316Z,97057.13
2022-10-03T12:50:00.901Z,97084.88
2022-10-03T12:55:22.872Z,97097.63
2022-10-03T13:00:34.025Z,97106.84
2022-10-03T13:05:56.181Z,97123.53
2022-10-03T13:11:13.769Z,97145.34
2022-10-03T13:16:27.514Z,97181.94
2022-10-03T13:21:47.396Z,97168.03
2022-10-03T13:27:02.145Z,97186.09
2022-10-03T13:32:16.396Z,97196.47
2022-10-03T13:37:32.329Z,97211.81
2022-10-03T13:42:41.196Z,97236.88
2022-10-03T13:47:52.925Z,97235.56
2022-10-03T13:53:02.436Z,97234.34
2022-10-03T13:58:36.528Z,97243.63
2022-10-03T14:03:55.397Z,97252.47
2022-10-03T14:09:33.685Z,97263.59
2022-10-03T14:15:03.115Z,97281.50
2022-10-03T14:20:22.044Z,97286.31
2022-10-03T14:25:31.441Z,97289.19
2022-10-03T14:31:04.915Z,97322.34
2022-10-03T14:36:25.177Z,97312.94
2022-10-03T14:41:42.668Z,97327.22
2022-10-03T14:46:57.823Z,97340.72
2022-10-03T14:52:06.000Z,97320.75
2022-10-03T14:57:24.607Z,97345.09
2022-10-03T15:02:32.369Z,97352.22
2022-10-03T15:07:41.244Z,97348.03
2022-10-03T15:12:50.015Z,97370.25
2022-10-03T15:17:56.904Z,97360.91
2022-10-03T15:23:03.921Z,97369.63
2022-10-03T15:28:13.868Z,97377.69
2022-10-03T15:33:22.559Z,97373.00
2022-10-03T15:38:35.259Z,97370.59
2022-10-03T15:43:47.574Z,97376.31
2022-10-03T15:48:56.136Z,97381.41
2022-10-03T15:54:03.510Z,97369.59
2022-10-03T15:59:10.794Z,97374.56
2022-10-03T16:04:21.422Z,97387.91
2022-10-03T16:09:32.196Z,97376.16
2022-10-03T16:14:43.643Z,97385.91
2022-10-03T16:19:55.137Z,97391.63
2022-10-03T16:25:16.088Z,97399.59
2022-10-03T16:30:25.521Z,97426.91
2022-10-03T16:35:37.012Z,97428.00
2022-10-03T16:40:43.304Z,97452.47
2022-10-03T16:45:49.965Z,97450.75
2022-10-03T16:50:55.663Z,97454.59
2022-10-03T16:56:08.965Z,97458.47
2022-10-03T17:01:28.042Z,97449.34
2022-10-03T17:06:35.835Z,97464.66
2022-10-03T17:11:43.974Z,97473.09
2022-10-03T17:16:57.035Z,97474.66
2022-10-03T17:22:10.177Z,97485.38
2022-10-03T17:27:25.281Z,97492.94
2022-10-03T17:32:36.595Z,97502.94
2022-10-03T17:38:24.662Z,97503.84
2022-10-03T17:43:37.998Z,97497.75
2022-10-03T17:48:48.292Z,97507.88
2022-10-03T17:53:59.111Z,97517.06
2022-10-03T17:59:10.561Z,97514.63
2022-10-03T18:04:19.769Z,97540.38
2022-10-03T18:09:33.994Z,97537.75
2022-10-03T18:14:49.175Z,97550.19
2022-10-03T18:20:11.642Z,97556.72
2022-10-03T18:25:37.552Z,97547.22
2022-10-03T18:30:50.018Z,97565.03
2022-10-03T18:35:56.591Z,97569.44
2022-10-03T18:41:02.850Z,97576.88
2022-10-03T18:46:21.929Z,97550.72
2022-10-03T18:51:33.936Z,97597.59
2022-10-03T18:56:39.587Z,97611.81
2022-10-03T19:01:56.717Z,97609.94
2022-10-03T19:07:03.552Z,97611.63
2022-10-03T19:12:16.481Z,97618.50
2022-10-03T19:17:34.692Z,97612.50
2022-10-03T19:22:43.466Z,97608.63
2022-10-03T19:27:52.449Z,97624.94
2022-10-03T19:33:02.616Z,97622.06
2022-10-03T19:38:17.455Z,97614.63
2022-10-03T19:43:34.875Z,97641.44
2022-10-03T19:48:48.364Z,97635.91
2022-10-03T19:53:53.004Z,97634.03
2022-10-03T19:59:04.328Z,97645.13
2022-10-03T20:04:09.407Z,97657.00
2022-10-03T20:09:34.611Z,97655.53
2022-10-03T20:14:42.111Z,97664.41
2022-10-03T20:19:55.821Z,97644.72
2022-10-03T20:25:00.856Z,97655.47
2022-10-03T20:30:09.931Z,97655.97
2022-10-03T20:35:19.995Z,97662.56
2022-10-03T20:40:31.582Z,97662.06
2022-10-03T20:45:38.165Z,97641.78
2022-10-03T20:50:48.531Z,97662.75
2022-10-03T20:55:55.997Z,97657.66
2022-10-03T21:01:05.195Z,97677.22
2022-10-03T21:06:20.127Z,97674.03
2022-10-03T21:11:25.347Z,97678.56
2022-10-03T21:16:32.814Z,97696.28
2022-10-03T21:21:43.474Z,97680.16
2022-10-03T21:26:50.408Z,97711.44
2022-10-03T21:32:06.643Z,97685.31
2022-10-03T21:37:19.625Z,97702.97
2022-10-03T21:42:30.538Z,97712.41
2022-10-03T21:47:42.679Z,97705.94
2022-10-03T21:53:16.750Z,97720.84
2022-10-03T21:58:40.583Z,97721.56
2022-10-03T22:03:52.021Z,97735.09
2022-10-03T22:09:04.078Z,97743.66
2022-10-03T22:14:19.888Z,97740.72
2022-10-03T22:19:34.702Z,97729.28
2022-10-03T22:24:43.772Z,97744.94
2022-10-03T22:29:57.838Z,97751.66
2022-10-03T22:35:17.903Z,97748.97
2022-10-03T22:40:24.966Z,97759.06
2022-10-03T22:45:33.044Z,97767.81
2022-10-03T22:50:42.658Z,97759.97
2022-10-03T22:55:51.971Z,97762.00
2022-10-03T23:00:59.399Z,97769.41
2022-10-03T23:06:32.347Z,97776.16
2022-10-03T23:11:41.000Z,97764.28
2022-10-03T23:16:54.737Z,97760.06
2022-10-03T23:22:01.356Z,97747.84
2022-10-03T23:27:31.955Z,97739.00
2022-10-03T23:32:53.539Z,97753.66
2022-10-03T23:37:58.929Z,97762.78
2022-10-03T23:43:07.909Z,97763.63
2022-10-03T23:48:15.267Z,97778.53
2022-10-03T23:53:26.410Z,97785.31
2022-10-03T23:58:34.577Z,97770.09
